Monday, December 17, 2018, 10:48 AM GMT
Back to Local

CWBK, Caribou Point Meteorological Aeronautical Presentation System

Location: , , Canada Lat: 45.767
Local Time: 10:48 AM GMT (10:48 GMT) Lon: -62.683
Time Zone: GMT Elev: 6 ft

Show me the last for .
Show Decoded

2018-12-17 10:00 METAR CWBK 171000Z AUTO 11014KT M01/M02 RMK AO1 SOG 04 6035 SLP121 T10051022 =
2018-12-17 09:00 METAR CWBK 170900Z AUTO 13010KT M01/M03 RMK AO1 SOG 04 6037 SLP132 T10081026 =
2018-12-17 08:00 METAR CWBK 170800Z AUTO 12013KT M01/M03 RMK AO1 SOG 04 8035 SLP142 T10121030 =
2018-12-17 07:00 METAR CWBK 170700Z AUTO 13007KT M02/M03 RMK AO1 SOG 04 6037 SLP156 T10181034 =
2018-12-17 06:00 METAR CWBK 170600Z AUTO 12012KT M01/M03 RMK AO1 SOG 04 6034 SLP169 T10081026 =
2018-12-17 05:00 METAR CWBK 170500Z AUTO 10012KT M01/M02 RMK AO1 SOG 04 8031 SLP177 T10081024 =
2018-12-17 04:00 METAR CWBK 170400Z AUTO 13008KT M01/M03 RMK AO1 SOG 04 8024 SLP193 T10131027 =
2018-12-17 03:00 METAR CWBK 170300Z AUTO 10006KT M01/M02 RMK AO1 SOG 04 8013 SLP203 T10121024 =
2018-12-17 02:00 METAR CWBK 170200Z AUTO 11003KT M02/M03 RMK AO1 SOG 04 8011 SLP208 T10161030 =
2018-12-17 01:00 METAR CWBK 170100Z AUTO 16003KT M01/M03 RMK AO1 SOG 04 5004 SLP217 T10141029 =
2018-12-17 00:00 METAR CWBK 170000Z AUTO 07006KT M01/M02 RMK AO1 3PAST HR SOG 04 8006 SLP216
                 P0001 T10071024 50007 =
2018-12-16 23:00 METAR CWBK 162300Z AUTO 07006KT M01/M03 RMK AO1 SOG 04 8004 SLP219 T10081028
                 50004 =
2018-12-16 22:00 METAR CWBK 162200Z AUTO 07006KT M00/M03 RMK AO1 SOG 04 8002 SLP221 T10021028
                 50004 =
2018-12-16 21:00 METAR CWBK 162100Z AUTO 16003KT M01/M04 RMK AO1 SOG 04 0007 SLP222 T10101037
                 50004 =
2018-12-16 20:00 METAR CWBK 162000Z AUTO 16003KT M00/M03 RMK AO1 SOG 04 3005 SLP223 T10031032
                 50004 =
2018-12-16 19:00 METAR CWBK 161900Z AUTO 18002KT 01/M03 RMK AO1 4PAST HR SOG 04 5000 SLP223 P0002
                 T00051031 50004 =
2018-12-16 18:00 METAR CWBK 161800Z AUTO 30004KT 01/M03 RMK AO1 SOG 04 6014 SLP215 T00121031 =
2018-12-16 17:00 METAR CWBK 161700Z AUTO 29006KT 02/M02 RMK AO1 SOG 04 8015 SLP218 T00161024 =
2018-12-16 16:00 METAR CWBK 161600Z AUTO 31004KT 01/M02 RMK AO1 SOG 04 8009 SLP223 T00101024 =
2018-12-16 15:00 METAR CWBK 161500Z AUTO 32008KT M00/M03 RMK AO1 SOG 04 0005 SLP229 T10021028 =
2018-12-16 14:00 METAR CWBK 161400Z AUTO 33011KT M00/M03 RMK AO1 SOG 04 3007 SLP233 T10011026 =
2018-12-16 13:00 METAR CWBK 161300Z AUTO 30010KT 00/M02 RMK AO1 SOG 04 3006 SLP232 T00001024 =
2018-12-16 12:00 METAR CWBK 161200Z AUTO 30013KT M00/M02 RMK AO1 SOG 04 0004 SLP224 T10031024 =
2018-12-16 11:00 METAR CWBK 161100Z AUTO 29014KT M01/M03 RMK AO1 SOG 04 1008 SLP226 T10071029 =

Support USWX by starting your Amazon purchase here.